Time;durP1;ratioP1;P1;durP2;ratioP2;P2;SDS_P1;SDS_P2;PMS_P1;PMS_P2;Temp;Humidity;BMP_temperature;BMP_pressure;BME280_temperature;BME280_humidity;BME280_pressure;Samples;Min_cycle;Max_cycle;Signal;HPM_P1;HPM_P2
2021/07/04 00:02:05;;;;;;;8.57;7.77;;;;;;;21.97;74.73;98988.75;5094515;28;20433;-73
2021/07/04 00:04:32;;;;;;;8.20;7.40;;;;;;;22.07;74.43;98997.63;5094735;28;20558;-74
2021/07/04 00:06:59;;;;;;;9.00;8.10;;;;;;;22.00;74.93;98996.63;5094893;28;20460;-72
2021/07/04 00:09:27;;;;;;;9.80;8.17;;;;;;;21.88;75.25;98995.28;5094614;28;20473;-73
2021/07/04 00:11:54;;;;;;;7.97;7.17;;;;;;;22.00;74.86;98984.78;5095179;28;20453;-74
2021/07/04 00:14:21;;;;;;;11.90;7.80;;;;;;;22.02;74.55;98990.97;5094934;28;21054;-74
2021/07/04 00:16:48;;;;;;;10.70;8.37;;;;;;;21.93;74.88;98986.53;5094911;28;20414;-74
2021/07/04 00:19:14;;;;;;;10.43;8.17;;;;;;;21.98;74.87;98990.47;5094831;28;20454;-74
2021/07/04 00:21:41;;;;;;;10.03;7.80;;;;;;;21.86;75.77;98987.22;5095034;28;20798;-73
2021/07/04 00:24:09;;;;;;;8.53;7.73;;;;;;;21.77;76.49;98981.97;5095053;28;20422;-73
2021/07/04 00:26:37;;;;;;;9.03;8.20;;;;;;;21.78;76.41;98983.69;5094831;28;20432;-73
2021/07/04 00:29:04;;;;;;;9.83;7.20;;;;;;;21.78;76.31;98975.47;5094493;28;20441;-73
2021/07/04 00:31:31;;;;;;;8.57;7.67;;;;;;;21.95;75.64;98976.25;5094841;28;20430;-73
2021/07/04 00:33:58;;;;;;;9.13;7.67;;;;;;;21.81;76.09;98981.44;5094754;28;20498;-73
2021/07/04 00:36:25;;;;;;;8.97;8.07;;;;;;;21.68;76.64;98986.63;5094113;28;20422;-73
2021/07/04 00:38:52;;;;;;;14.37;10.63;;;;;;;21.70;76.49;98984.56;5094766;28;20456;-73
2021/07/04 00:41:18;;;;;;;9.13;7.00;;;;;;;21.77;76.78;98980.06;5094814;28;20465;-74
2021/07/04 00:43:48;;;;;;;9.07;7.57;;;;;;;21.76;76.52;98975.63;5094657;28;20438;-73
2021/07/04 00:46:14;;;;;;;8.60;7.70;;;;;;;21.61;77.19;98970.03;5095041;28;20441;-73
2021/07/04 00:48:41;;;;;;;10.80;7.43;;;;;;;21.60;77.74;98972.97;5094750;28;20434;-73
2021/07/04 00:51:09;;;;;;;9.60;8.60;;;;;;;21.36;78.99;98971.09;5094121;28;20473;-74
2021/07/04 00:53:36;;;;;;;8.50;7.40;;;;;;;21.31;79.63;98979.81;5094266;28;20974;-74
2021/07/04 00:56:03;;;;;;;8.03;7.23;;;;;;;21.43;79.38;98975.72;5094320;28;20454;-74
2021/07/04 00:58:32;;;;;;;9.03;7.70;;;;;;;21.51;78.79;98974.00;5094770;28;20934;-74
2021/07/04 01:01:00;;;;;;;8.03;7.33;;;;;;;21.54;78.44;98976.38;5094312;28;20426;-74
2021/07/04 01:03:27;;;;;;;8.23;7.43;;;;;;;21.53;78.34;98978.28;5094072;28;20414;-74
2021/07/04 01:05:54;;;;;;;8.17;7.37;;;;;;;21.67;77.72;98973.97;5094393;28;20509;-75
2021/07/04 01:08:20;;;;;;;9.23;8.23;;;;;;;21.73;77.17;98978.75;5094322;28;20489;-72
2021/07/04 01:10:47;;;;;;;8.60;7.80;;;;;;;21.62;77.60;98976.38;5094313;28;20506;-73
2021/07/04 01:13:14;;;;;;;9.63;7.20;;;;;;;21.68;76.71;98980.28;5093753;28;20531;-73
2021/07/04 01:15:43;;;;;;;7.87;7.17;;;;;;;21.80;75.13;98979.75;5094457;28;20469;-74
2021/07/04 01:18:11;;;;;;;7.97;7.27;;;;;;;21.62;75.90;98970.91;5093993;28;20464;-74
2021/07/04 01:20:41;;;;;;;8.00;6.90;;;;;;;21.49;75.82;98976.06;5093958;28;20542;-74
2021/07/04 01:23:11;;;;;;;7.90;6.97;;;;;;;21.67;74.80;98973.97;5093633;28;20851;-73
2021/07/04 01:25:44;;;;;;;7.40;6.70;;;;;;;21.54;75.29;98973.66;5094418;28;20826;-73
2021/07/04 01:28:11;;;;;;;9.10;6.73;;;;;;;21.51;75.15;98972.13;5093856;28;20458;-74
2021/07/04 01:30:39;;;;;;;9.03;6.60;;;;;;;21.44;74.89;98969.22;5093875;28;20827;-73
2021/07/04 01:33:05;;;;;;;8.10;7.30;;;;;;;21.35;75.56;98974.88;5093985;28;20548;-74
2021/07/04 01:35:32;;;;;;;8.00;7.30;;;;;;;21.42;75.34;98975.91;5093966;28;20477;-74
2021/07/04 01:37:59;;;;;;;7.73;6.93;;;;;;;21.35;75.81;98978.44;5094108;28;20871;-74
2021/07/04 01:40:29;;;;;;;8.13;6.63;;;;;;;21.39;75.70;98971.59;5093535;28;20555;-74
2021/07/04 01:42:56;;;;;;;8.60;7.70;;;;;;;21.39;75.34;98973.47;5093952;28;20430;-74
2021/07/04 01:45:22;;;;;;;7.93;7.13;;;;;;;21.35;76.02;98970.22;5093896;28;20426;-74
2021/07/04 01:47:50;;;;;;;7.23;6.50;;;;;;;21.44;75.22;98960.16;5092804;28;20442;-73
2021/07/04 01:50:19;;;;;;;7.40;6.60;;;;;;;21.48;74.91;98964.22;5093163;28;20533;-73
2021/07/04 01:52:46;;;;;;;9.80;6.67;;;;;;;21.47;74.47;98961.69;5093176;28;20469;-74
2021/07/04 01:55:15;;;;;;;6.90;6.30;;;;;;;21.48;74.22;98969.72;5094106;28;20446;-74
2021/07/04 01:57:44;;;;;;;8.03;7.27;;;;;;;21.35;74.70;98961.16;5093397;28;20449;-73
2021/07/04 02:00:13;;;;;;;6.73;6.00;;;;;;;21.16;73.99;98970.59;5093585;28;20945;-73
2021/07/04 02:02:40;;;;;;;6.57;6.00;;;;;;;21.31;73.64;98960.66;5093266;28;20422;-73
2021/07/04 02:05:08;;;;;;;6.40;5.80;;;;;;;21.26;73.99;98968.53;5093215;28;21046;-73
2021/07/04 02:07:35;;;;;;;6.17;5.33;;;;;;;21.12;74.01;98963.75;5092936;28;20522;-73
2021/07/04 02:10:02;;;;;;;6.10;5.60;;;;;;;21.16;73.99;98960.50;5093532;28;20987;-74
2021/07/04 02:12:29;;;;;;;7.03;6.33;;;;;;;21.08;74.67;98962.41;5093180;28;20521;-74
2021/07/04 02:14:57;;;;;;;7.13;5.93;;;;;;;21.14;74.69;98967.16;5093222;28;20993;-73
2021/07/04 02:17:23;;;;;;;6.73;6.03;;;;;;;21.01;74.29;98962.22;5092703;28;20813;-74
2021/07/04 02:19:50;;;;;;;7.40;6.00;;;;;;;20.81;75.61;98961.72;5093224;28;20513;-74
2021/07/04 02:22:18;;;;;;;5.90;5.00;;;;;;;20.71;76.08;98956.38;5093060;28;20426;-74
2021/07/04 02:24:44;;;;;;;6.53;5.93;;;;;;;20.57;77.41;98952.44;5093167;28;20517;-73
2021/07/04 02:27:11;;;;;;;5.83;5.23;;;;;;;20.52;76.82;98952.06;5093125;28;20461;-73
2021/07/04 02:29:38;;;;;;;5.53;4.90;;;;;;;20.44;77.64;98954.78;5093197;28;20861;-73
2021/07/04 02:32:08;;;;;;;6.07;5.47;;;;;;;20.45;77.70;98956.50;5092978;28;20422;-73
2021/07/04 02:34:34;;;;;;;6.20;5.70;;;;;;;20.29;78.23;98960.06;5093171;28;20959;-74
2021/07/04 02:37:01;;;;;;;7.13;5.83;;;;;;;20.24;79.51;98964.31;5092786;28;20538;-73
2021/07/04 02:39:27;;;;;;;6.73;6.13;;;;;;;20.17;79.69;98958.63;5092919;28;20456;-74
2021/07/04 02:41:54;;;;;;;6.73;6.13;;;;;;;20.19;80.32;98953.88;5092902;28;20505;-75
2021/07/04 02:44:21;;;;;;;6.07;5.47;;;;;;;20.30;79.23;98952.72;5092773;28;20470;-74
2021/07/04 02:46:48;;;;;;;7.63;5.60;;;;;;;20.19;79.45;98952.00;5092749;28;20525;-72
2021/07/04 02:49:15;;;;;;;5.93;5.33;;;;;;;20.18;79.54;98955.75;5092411;28;20438;-74
2021/07/04 02:51:42;;;;;;;5.93;5.37;;;;;;;20.20;79.37;98963.78;5093112;28;20436;-73
2021/07/04 02:54:09;;;;;;;7.40;5.50;;;;;;;20.07;80.10;98953.31;5092876;28;20561;-73
2021/07/04 02:56:35;;;;;;;6.97;5.93;;;;;;;20.21;79.66;98951.81;5092828;28;20478;-74
2021/07/04 02:59:03;;;;;;;6.27;5.70;;;;;;;20.16;79.71;98959.69;5093478;28;20520;-75
2021/07/04 03:01:29;;;;;;;6.30;5.70;;;;;;;20.21;79.53;98951.81;5097160;28;20528;-75
2021/07/04 03:03:56;;;;;;;7.30;5.73;;;;;;;20.02;80.77;98957.59;5096415;28;20476;-74
2021/07/04 03:06:24;;;;;;;5.27;4.87;;;;;;;20.06;80.39;98961.69;5096926;28;20426;-74
2021/07/04 03:08:51;;;;;;;7.23;5.77;;;;;;;20.09;80.51;98954.03;5096756;28;20456;-74
2021/07/04 03:11:17;;;;;;;6.68;5.97;;;;;;;19.85;81.46;98962.13;5096695;28;20520;-74
2021/07/04 03:13:44;;;;;;;6.40;5.80;;;;;;;19.79;82.11;98956.28;5096402;28;20226;-72
2021/07/04 03:16:11;;;;;;;6.47;5.38;;;;;;;20.08;80.39;98960.53;5096701;28;20869;-73
2021/07/04 03:18:37;;;;;;;8.82;5.90;;;;;;;19.96;80.95;98953.63;5096554;28;20290;-71
2021/07/04 03:21:04;;;;;;;7.07;5.70;;;;;;;19.95;81.17;98957.41;5096535;28;20733;-73
2021/07/04 03:23:32;;;;;;;6.70;6.00;;;;;;;19.84;81.70;98954.97;5096533;28;20449;-74
2021/07/04 03:25:59;;;;;;;6.25;5.65;;;;;;;19.79;82.01;98956.28;5096224;28;20432;-74
2021/07/04 03:28:26;;;;;;;5.00;4.60;;;;;;;19.81;81.94;98947.94;5096242;28;20293;-73
2021/07/04 03:30:52;;;;;;;6.15;5.55;;;;;;;19.97;80.67;98952.63;5096394;28;20496;-74
2021/07/04 03:33:19;;;;;;;5.88;5.20;;;;;;;19.84;81.64;98949.50;5096239;28;20290;-73
2021/07/04 03:35:46;;;;;;;6.25;5.75;;;;;;;19.77;82.34;98946.56;5096032;28;20188;-74
2021/07/04 03:38:13;;;;;;;5.97;5.38;;;;;;;19.94;81.28;98944.72;5095957;28;20249;-73
2021/07/04 03:40:41;;;;;;;6.18;5.68;;;;;;;20.02;81.02;98947.50;5096217;28;20251;-74
2021/07/04 03:43:08;;;;;;;6.03;5.33;;;;;;;20.04;80.29;98948.19;5095993;28;20245;-74
2021/07/04 03:45:34;;;;;;;5.90;5.27;;;;;;;20.06;80.20;98942.56;5095353;28;20429;-72
2021/07/04 03:48:01;;;;;;;6.32;5.75;;;;;;;20.00;80.79;98946.81;5096148;28;20418;-73
2021/07/04 03:50:28;;;;;;;6.22;5.63;;;;;;;20.03;81.06;98946.47;5095845;28;20200;-74
2021/07/04 03:52:56;;;;;;;5.80;5.20;;;;;;;20.18;80.15;98949.44;5095560;28;20281;-73
2021/07/04 03:55:23;;;;;;;6.07;5.47;;;;;;;20.14;80.83;98932.50;5096121;28;20461;-74
2021/07/04 03:57:52;;;;;;;7.00;5.93;;;;;;;20.22;80.80;98939.03;5095806;28;20438;-74
2021/07/04 04:00:20;;;;;;;10.63;6.33;;;;;;;20.21;81.71;98951.81;5095527;28;20426;-73
2021/07/04 04:02:46;;;;;;;6.47;5.97;;;;;;;20.34;81.61;98945.88;5095603;28;20432;-74
2021/07/04 04:05:14;;;;;;;8.07;7.27;;;;;;;20.28;81.97;98950.13;5095194;28;20466;-73
2021/07/04 04:07:41;;;;;;;7.60;6.90;;;;;;;20.41;81.16;98957.84;5095385;28;20522;-74
2021/07/04 04:10:09;;;;;;;7.70;6.00;;;;;;;20.42;81.44;98963.16;5094633;28;20438;-74
2021/07/04 04:12:36;;;;;;;6.50;5.93;;;;;;;20.57;81.07;98954.34;5095157;28;20522;-73
2021/07/04 04:15:04;;;;;;;7.63;6.33;;;;;;;20.69;80.29;98954.84;5095285;28;20539;-73
2021/07/04 04:17:31;;;;;;;9.90;7.40;;;;;;;20.45;81.58;98950.19;5095368;28;20425;-75
2021/07/04 04:19:58;;;;;;;7.17;6.47;;;;;;;20.41;82.10;98952.38;5095497;28;20553;-73
2021/07/04 04:22:25;;;;;;;6.93;6.30;;;;;;;20.20;83.34;98953.72;5095056;28;20422;-74
2021/07/04 04:24:51;;;;;;;7.07;6.47;;;;;;;20.11;84.03;98948.41;5095042;28;20487;-74
2021/07/04 04:27:18;;;;;;;6.53;5.83;;;;;;;20.13;83.97;98951.81;5095086;28;20983;-73
2021/07/04 04:29:45;;;;;;;6.90;6.20;;;;;;;20.32;83.01;98956.13;5095222;28;21011;-73
2021/07/04 04:32:13;;;;;;;7.70;6.27;;;;;;;20.36;82.53;98944.69;5094989;28;20427;-73
2021/07/04 04:34:39;;;;;;;7.50;6.80;;;;;;;20.30;82.86;98945.34;5095108;28;20466;-74
2021/07/04 04:37:06;;;;;;;6.90;6.13;;;;;;;20.29;83.95;98951.84;5094852;28;20446;-74
2021/07/04 04:39:33;;;;;;;7.57;6.87;;;;;;;20.19;84.55;98942.94;5094129;28;20430;-75
2021/07/04 04:42:01;;;;;;;8.80;6.50;;;;;;;20.07;86.36;98950.59;5094877;28;20532;-73
2021/07/04 04:44:27;;;;;;;7.90;7.20;;;;;;;20.15;86.33;98938.84;5094610;28;20473;-74
2021/07/04 04:46:54;;;;;;;7.07;6.37;;;;;;;20.31;85.46;98946.22;5094828;28;20422;-74
2021/07/04 04:49:22;;;;;;;10.80;7.70;;;;;;;20.41;84.77;98938.72;5094444;28;20509;-74
2021/07/04 04:51:49;;;;;;;8.27;6.97;;;;;;;20.50;84.14;98937.72;5094284;28;20488;-74
2021/07/04 04:54:15;;;;;;;8.37;6.63;;;;;;;20.44;85.06;98932.06;5094351;28;20828;-74
2021/07/04 04:56:42;;;;;;;8.60;7.80;;;;;;;20.41;84.62;98942.31;5094769;28;20497;-73
2021/07/04 04:59:08;;;;;;;8.00;7.30;;;;;;;20.26;85.79;98937.66;5094236;28;20444;-74
2021/07/04 05:01:35;;;;;;;8.40;7.60;;;;;;;20.21;86.63;98932.69;5094354;28;20534;-74
2021/07/04 05:04:02;;;;;;;13.50;8.93;;;;;;;20.26;87.23;98937.66;5093818;28;20474;-74
2021/07/04 05:06:30;;;;;;;17.50;9.67;;;;;;;20.46;86.56;98930.84;5093990;28;20462;-73
2021/07/04 05:08:56;;;;;;;10.23;7.43;;;;;;;20.36;87.38;98927.44;5093598;28;20457;-74
2021/07/04 05:11:23;;;;;;;9.30;8.20;;;;;;;20.46;86.47;98930.84;5094003;28;20440;-73
2021/07/04 05:13:49;;;;;;;10.00;8.20;;;;;;;20.58;85.84;98928.72;5093532;28;20510;-74
2021/07/04 05:16:17;;;;;;;11.77;8.00;;;;;;;20.48;86.51;98934.28;5092780;28;20434;-73
2021/07/04 05:18:43;;;;;;;9.90;8.40;;;;;;;20.51;86.75;98938.56;5093497;28;20861;-73
2021/07/04 05:21:10;;;;;;;10.10;8.60;;;;;;;20.43;87.67;98933.94;5093711;28;20429;-74
2021/07/04 05:23:38;;;;;;;12.10;9.03;;;;;;;20.47;87.74;98938.06;5093143;28;20438;-74
2021/07/04 05:26:06;;;;;;;9.13;8.23;;;;;;;20.47;88.64;98929.00;5093690;28;20532;-72
2021/07/04 05:28:32;;;;;;;9.10;8.20;;;;;;;20.50;89.11;98918.56;5093690;28;20475;-73
2021/07/04 05:30:59;;;;;;;12.27;9.63;;;;;;;20.50;90.91;98915.84;5093512;28;20542;-75
2021/07/04 05:33:26;;;;;;;14.77;8.90;;;;;;;20.53;90.59;98917.38;5093340;28;20452;-73
2021/07/04 05:35:52;;;;;;;10.33;9.23;;;;;;;20.53;90.51;98918.25;5092775;28;20549;-72
2021/07/04 05:38:20;;;;;;;11.30;9.50;;;;;;;20.52;92.01;98913.78;5092769;28;20441;-72
2021/07/04 05:40:48;;;;;;;10.77;9.67;;;;;;;20.56;91.67;98915.19;5093072;28;20778;-73
2021/07/04 05:43:16;;;;;;;10.90;9.80;;;;;;;20.71;90.17;98911.78;5092768;28;20491;-73
2021/07/04 05:45:43;;;;;;;11.10;9.20;;;;;;;20.56;91.54;98903.38;5092731;28;20495;-73
2021/07/04 05:48:10;;;;;;;12.33;10.23;;;;;;;20.49;92.16;98916.88;5093068;28;20498;-72
2021/07/04 05:50:36;;;;;;;10.80;9.70;;;;;;;20.74;91.21;98914.19;5092506;28;20465;-73
2021/07/04 05:53:03;;;;;;;10.20;9.00;;;;;;;20.74;89.67;98908.72;5092881;28;20469;-73
2021/07/04 05:55:30;;;;;;;10.37;9.30;;;;;;;20.88;89.83;98907.16;5092693;28;20822;-73
2021/07/04 05:57:58;;;;;;;9.53;8.53;;;;;;;21.04;87.83;98907.13;5092607;28;20437;-73
2021/07/04 06:00:25;;;;;;;9.70;8.60;;;;;;;21.12;88.29;98909.88;5092809;28;20928;-72
2021/07/04 06:02:51;;;;;;;10.10;8.60;;;;;;;21.27;85.93;98903.69;5092272;28;20458;-72
2021/07/04 06:05:18;;;;;;;9.33;8.10;;;;;;;21.61;83.31;98907.03;5092176;28;21039;-74
2021/07/04 06:07:45;;;;;;;10.03;9.07;;;;;;;21.62;83.49;98905.16;5091569;28;20524;-73
2021/07/04 06:10:13;;;;;;;9.03;8.23;;;;;;;21.68;83.14;98904.44;5092965;28;20885;-73
2021/07/04 06:12:40;;;;;;;8.27;7.47;;;;;;;21.95;78.97;98908.59;5092243;28;20513;-74
2021/07/04 06:15:09;;;;;;;8.30;7.50;;;;;;;22.03;78.71;98908.56;5092327;28;20481;-72
2021/07/04 06:17:36;;;;;;;10.70;8.20;;;;;;;21.46;81.91;98903.34;5092488;28;20438;-73
2021/07/04 06:20:03;;;;;;;8.10;7.30;;;;;;;21.66;82.11;98903.75;5092253;28;20430;-73
2021/07/04 06:22:30;;;;;;;7.83;7.10;;;;;;;21.61;81.85;98896.06;5092087;28;20422;-73
2021/07/04 06:24:56;;;;;;;7.60;6.90;;;;;;;21.44;81.58;98892.53;5092534;28;20438;-73
2021/07/04 06:27:23;;;;;;;8.90;6.70;;;;;;;21.76;79.51;98898.94;5092469;28;20447;-73
2021/07/04 06:29:50;;;;;;;6.60;6.00;;;;;;;21.84;78.00;98900.75;5092703;28;20444;-73
2021/07/04 06:32:18;;;;;;;6.97;6.23;;;;;;;21.91;76.98;98906.38;5092459;28;20992;-71
2021/07/04 06:34:45;;;;;;;8.40;6.03;;;;;;;21.69;78.14;98906.16;5096182;28;20497;-71
2021/07/04 06:37:11;;;;;;;6.83;5.97;;;;;;;21.70;77.14;98901.53;5099205;28;20853;-72
2021/07/04 06:39:38;;;;;;;6.23;5.73;;;;;;;21.61;79.29;98908.91;5098956;28;20469;-73
2021/07/04 06:42:05;;;;;;;6.03;5.43;;;;;;;21.60;79.02;98899.00;5098894;28;20436;-71
2021/07/04 06:44:32;;;;;;;7.47;6.77;;;;;;;21.22;81.88;98907.78;5099043;28;20426;-72
2021/07/04 06:46:59;;;;;;;7.00;6.40;;;;;;;21.30;80.85;98906.06;5098561;28;20540;-72
2021/07/04 06:49:26;;;;;;;7.10;6.30;;;;;;;21.14;82.61;98907.81;5099079;28;20464;-73
2021/07/04 06:51:53;;;;;;;7.00;6.30;;;;;;;21.02;81.40;98899.09;5098631;28;20461;-72
2021/07/04 06:54:20;;;;;;;6.43;5.83;;;;;;;21.16;81.19;98896.69;5098508;28;20445;-72
2021/07/04 06:56:46;;;;;;;8.40;6.60;;;;;;;21.59;79.90;98895.38;5098829;28;20468;-72
2021/07/04 06:59:13;;;;;;;7.67;6.87;;;;;;;21.61;79.77;98893.31;5098370;28;20536;-72
2021/07/04 07:01:40;;;;;;;6.27;5.67;;;;;;;21.89;78.88;98897.50;5098598;28;20457;-73
2021/07/04 07:04:06;;;;;;;7.60;6.63;;;;;;;22.19;77.16;98888.41;5098416;28;20473;-73
2021/07/04 07:06:34;;;;;;;7.10;6.33;;;;;;;22.05;76.43;98900.16;5095330;28;21007;-73
2021/07/04 07:09:01;;;;;;;7.23;6.53;;;;;;;22.31;76.08;98896.25;5098508;28;20536;-73
2021/07/04 07:11:27;;;;;;;6.63;5.80;;;;;;;22.12;76.20;98884.69;5098672;28;20955;-73
2021/07/04 07:13:54;;;;;;;8.00;7.30;;;;;;;21.80;78.40;98883.84;5098699;28;20885;-72
2021/07/04 07:16:21;;;;;;;6.73;6.13;;;;;;;21.42;81.53;98886.38;5098627;28;20531;-73
2021/07/04 07:18:47;;;;;;;8.70;7.80;;;;;;;21.17;82.11;98885.56;5098357;28;20452;-73
2021/07/04 07:21:14;;;;;;;8.17;7.37;;;;;;;21.14;83.41;98876.84;5078259;28;20422;-73
2021/07/04 07:23:42;;;;;;;8.57;7.63;;;;;;;21.28;84.38;98881.63;5091094;28;21028;-74
2021/07/04 07:26:08;;;;;;;9.00;8.20;;;;;;;21.26;84.21;98886.41;5098576;28;20781;-74
2021/07/04 07:28:35;;;;;;;9.83;8.87;;;;;;;21.32;85.08;98874.72;5098148;28;20536;-73
2021/07/04 07:31:01;;;;;;;9.00;8.10;;;;;;;21.18;86.05;98879.06;5098035;28;20517;-74
2021/07/04 07:33:28;;;;;;;9.27;8.37;;;;;;;20.68;89.23;98879.31;5098228;28;20433;-72
2021/07/04 07:35:55;;;;;;;10.20;9.20;;;;;;;20.60;90.08;98889.22;5098370;28;20484;-73
2021/07/04 07:38:21;;;;;;;9.50;8.60;;;;;;;20.45;94.36;98895.50;5098061;28;20907;-73
2021/07/04 07:40:49;;;;;;;14.43;8.57;;;;;;;20.52;97.67;98880.13;5098354;28;20778;-74
2021/07/04 07:43:16;;;;;;;10.20;9.20;;;;;;;20.01;100.00;98880.22;5098186;28;20446;-73
2021/07/04 07:45:45;;;;;;;13.00;10.37;;;;;;;19.77;100.00;98881.84;5096680;28;20415;-74
2021/07/04 07:48:12;;;;;;;11.30;10.20;;;;;;;19.82;100.00;98886.81;5094526;28;20873;-74
2021/07/04 07:50:39;;;;;;;10.97;9.87;;;;;;;19.84;100.00;98881.19;5094418;28;20414;-74
2021/07/04 07:53:06;;;;;;;11.20;10.10;;;;;;;19.65;100.00;98880.44;5094966;28;20433;-73
2021/07/04 07:55:33;;;;;;;11.30;10.17;;;;;;;19.48;100.00;98873.19;5094919;28;20473;-73
2021/07/04 07:58:01;;;;;;;13.07;11.30;;;;;;;19.38;100.00;98867.84;5095144;28;20891;-74
2021/07/04 08:00:27;;;;;;;11.83;10.63;;;;;;;19.47;100.00;98871.44;5095070;28;20433;-73
2021/07/04 08:02:54;;;;;;;11.55;9.60;;;;;;;19.64;100.00;98870.50;5094696;28;20527;-74
2021/07/04 08:05:21;;;;;;;12.10;9.87;;;;;;;19.75;100.00;98866.66;5094350;28;20322;-75
2021/07/04 08:07:47;;;;;;;10.60;9.60;;;;;;;19.48;100.00;98863.09;5095029;28;20422;-74
2021/07/04 08:10:14;;;;;;;10.65;9.60;;;;;;;19.17;100.00;98862.78;5094655;28;20441;-74
2021/07/04 08:12:41;;;;;;;10.45;9.45;;;;;;;19.47;100.00;98861.41;5094031;28;20192;-73
2021/07/04 08:15:11;;;;;;;11.27;10.07;;;;;;;19.70;100.00;98864.44;5094833;28;20214;-73
2021/07/04 08:17:38;;;;;;;10.55;8.88;;;;;;;19.76;100.00;98863.78;5093710;28;20200;-74
2021/07/04 08:20:06;;;;;;;10.80;9.70;;;;;;;19.81;100.00;98855.09;5094616;28;20505;-73
2021/07/04 08:22:33;;;;;;;10.27;9.17;;;;;;;19.68;100.00;98858.25;5094598;28;20513;-73
2021/07/04 08:24:59;;;;;;;10.38;9.43;;;;;;;19.65;100.00;98850.38;5094095;28;20438;-74
2021/07/04 08:27:26;;;;;;;9.43;8.40;;;;;;;19.72;100.00;98848.72;5093206;28;20292;-73
2021/07/04 08:29:53;;;;;;;10.50;9.13;;;;;;;20.00;100.00;98845.72;5094215;28;20465;-73
2021/07/04 08:32:21;;;;;;;9.57;8.67;;;;;;;20.04;100.00;98833.44;5093904;28;20513;-74
2021/07/04 08:34:47;;;;;;;8.87;7.97;;;;;;;19.98;100.00;98831.38;5093743;28;20536;-73
2021/07/04 08:37:14;;;;;;;9.77;8.80;;;;;;;20.26;98.60;98825.59;5093963;28;20549;-72
2021/07/04 08:39:41;;;;;;;8.80;8.00;;;;;;;20.38;98.31;98829.72;5093741;28;20521;-73
2021/07/04 08:42:07;;;;;;;8.13;7.43;;;;;;;20.78;97.44;98819.78;5093943;28;20831;-73
2021/07/04 08:44:34;;;;;;;8.90;8.10;;;;;;;20.97;92.55;98818.56;5093306;28;20513;-74
2021/07/04 08:47:00;;;;;;;8.13;6.73;;;;;;;21.42;89.07;98826.13;5093702;28;20457;-73
2021/07/04 08:49:28;;;;;;;6.87;6.27;;;;;;;21.44;82.83;98820.50;5093880;28;20859;-74
2021/07/04 08:51:55;;;;;;;6.37;5.40;;;;;;;21.48;79.90;98826.47;5092630;28;20440;-73
2021/07/04 08:54:22;;;;;;;6.60;6.00;;;;;;;21.50;81.37;98818.91;5093284;28;20423;-72
2021/07/04 08:56:50;;;;;;;6.03;5.53;;;;;;;21.59;82.17;98828.78;5092849;28;20509;-74
2021/07/04 08:59:17;;;;;;;6.10;5.50;;;;;;;21.49;82.22;98828.19;5093933;28;20887;-73
2021/07/04 09:01:53;;;;;;;7.53;6.17;;;;;;;21.22;85.55;98816.59;5093242;28;20522;-74
2021/07/04 09:04:25;;;;;;;9.37;7.37;;;;;;;20.74;91.55;98821.19;5093029;28;20532;-73
2021/07/04 09:06:54;;;;;;;9.17;8.20;;;;;;;20.34;96.78;98836.53;5092936;28;20441;-73
2021/07/04 09:09:24;;;;;;;8.63;7.20;;;;;;;19.84;100.00;98830.16;5093416;28;20523;-74
2021/07/04 09:12:03;;;;;;;9.03;8.17;;;;;;;19.79;100.00;98836.13;5093169;28;20495;-74
2021/07/04 09:14:34;;;;;;;8.77;7.97;;;;;;;19.45;100.00;98827.13;5092898;28;20494;-74
2021/07/04 09:17:01;;;;;;;7.60;6.80;;;;;;;19.38;100.00;98835.94;5092508;28;20473;-73
2021/07/04 09:19:28;;;;;;;8.10;7.30;;;;;;;19.38;100.00;98837.84;5093076;28;20790;-74
2021/07/04 09:22:01;;;;;;;6.43;5.82;;;;;;;18.79;100.00;98834.94;5092746;28;20444;-74
2021/07/04 09:24:29;;;;;;;8.00;7.20;;;;;;;18.49;100.00;98830.75;5093481;28;20271;-74
2021/07/04 09:26:56;;;;;;;9.25;8.40;;;;;;;18.73;100.00;98838.28;5092435;28;20195;-73
2021/07/04 09:29:42;;;;;;;9.13;8.00;;;;;;;18.97;100.00;98826.69;5092897;28;20238;-74
2021/07/04 09:32:14;;;;;;;10.05;9.02;;;;;;;18.94;100.00;98827.88;5092755;28;20200;-73
2021/07/04 09:34:41;;;;;;;9.10;8.15;;;;;;;19.03;100.00;98817.84;5092859;28;20525;-75
2021/07/04 09:37:09;;;;;;;8.88;7.97;;;;;;;19.12;100.00;98816.88;5091965;28;20250;-74
2021/07/04 09:39:36;;;;;;;9.30;8.20;;;;;;;19.18;100.00;98812.66;5092807;28;20188;-73
2021/07/04 09:42:11;;;;;;;9.25;8.30;;;;;;;19.42;100.00;98806.44;5092841;28;20207;-74
2021/07/04 09:44:39;;;;;;;11.23;9.30;;;;;;;19.53;100.00;98805.28;5093054;28;20224;-74
2021/07/04 09:47:15;;;;;;;10.10;8.87;;;;;;;19.47;100.00;98812.28;5092783;28;20292;-73
2021/07/04 09:49:42;;;;;;;10.63;9.10;;;;;;;19.48;100.00;98810.38;5092707;28;20437;-74
2021/07/04 09:52:18;;;;;;;11.50;10.20;;;;;;;19.51;100.00;98810.91;5092517;28;20762;-74
2021/07/04 09:54:59;;;;;;;9.20;8.25;;;;;;;19.36;100.00;98813.41;5092279;28;20504;-75
2021/07/04 09:57:27;;;;;;;10.13;9.20;;;;;;;19.51;100.00;98818.25;5092344;28;20229;-74
2021/07/04 10:00:14;;;;;;;10.13;8.95;;;;;;;19.55;100.00;98805.97;5092355;28;20196;-74
2021/07/04 10:02:41;;;;;;;13.55;12.15;;;;;;;19.53;100.00;98802.56;5092377;28;20740;-73
2021/07/04 10:05:15;;;;;;;13.40;10.70;;;;;;;19.67;100.00;98798.31;5091915;28;20593;-73
2021/07/04 10:07:43;;;;;;;11.70;10.50;;;;;;;19.69;100.00;98805.34;5072179;28;20607;-73
2021/07/04 10:10:11;;;;;;;12.23;10.93;;;;;;;19.73;100.00;98804.00;5071273;28;20431;-74
2021/07/04 10:12:39;;;;;;;11.43;10.15;;;;;;;19.80;100.00;98812.38;5071915;28;20446;-73
2021/07/04 10:15:07;;;;;;;10.70;9.60;;;;;;;19.85;100.00;98814.59;5075833;28;20233;-71
2021/07/04 10:17:34;;;;;;;12.10;10.50;;;;;;;19.79;100.00;98836.13;5071553;28;20500;-72
2021/07/04 10:20:02;;;;;;;9.67;8.30;;;;;;;19.81;100.00;98857.81;5071952;28;20479;-73
2021/07/04 10:22:34;;;;;;;7.32;6.10;;;;;;;19.76;100.00;98866.50;5084165;28;20448;-73
2021/07/04 10:25:05;;;;;;;7.90;7.07;;;;;;;19.56;100.00;98844.03;5092026;28;20641;-72
2021/07/04 10:27:33;;;;;;;52.33;11.27;;;;;;;18.48;100.00;98812.72;5091150;28;20195;-74
2021/07/04 10:30:00;;;;;;;12.55;9.60;;;;;;;17.92;100.00;98750.25;5091553;28;20210;-72
2021/07/04 10:32:27;;;;;;;10.00;8.50;;;;;;;18.01;100.00;98740.28;5092411;28;20287;-74
2021/07/04 10:34:53;;;;;;;9.52;8.50;;;;;;;18.22;100.00;98752.72;5092708;28;20643;-73
2021/07/04 10:37:31;;;;;;;12.15;8.82;;;;;;;18.25;100.00;98766.88;5092539;28;20210;-73
2021/07/04 10:40:12;;;;;;;10.05;7.93;;;;;;;18.26;100.00;98776.75;5092460;28;20197;-73
2021/07/04 10:42:39;;;;;;;8.32;7.30;;;;;;;18.31;100.00;98788.03;5091750;28;20273;-75
2021/07/04 10:45:32;;;;;;;6.93;6.22;;;;;;;18.14;100.00;98783.50;5091913;28;20183;-72
2021/07/04 10:47:59;;;;;;;7.47;6.78;;;;;;;18.22;100.00;98775.34;5086481;28;20185;-74
2021/07/04 10:50:27;;;;;;;10.23;8.20;;;;;;;18.22;100.00;98777.22;5091828;28;20310;-72
2021/07/04 10:52:54;;;;;;;8.05;7.25;;;;;;;18.46;100.00;98762.94;5091895;28;20209;-74
2021/07/04 10:55:31;;;;;;;8.95;7.95;;;;;;;18.76;100.00;98761.59;5092569;28;20197;-74
2021/07/04 10:58:00;;;;;;;9.23;7.80;;;;;;;19.04;100.00;98765.03;5091704;28;20216;-73
2021/07/04 11:00:42;;;;;;;11.93;8.02;;;;;;;19.20;100.00;98764.25;5091483;28;20253;-74
2021/07/04 11:03:12;;;;;;;6.65;5.97;;;;;;;19.22;100.00;98758.59;5091930;28;20637;-73
2021/07/04 11:05:49;;;;;;;4.90;4.23;;;;;;;18.99;100.00;98747.41;5091681;28;20562;-73
2021/07/04 11:08:30;;;;;;;6.60;4.90;;;;;;;19.21;100.00;98751.44;5092099;28;20519;-73
2021/07/04 11:11:06;;;;;;;6.15;4.82;;;;;;;19.43;100.00;98753.56;5091657;28;20929;-73
2021/07/04 11:13:41;;;;;;;5.30;4.43;;;;;;;19.63;100.00;98758.72;5091734;28;20187;-73
2021/07/04 11:16:14;;;;;;;8.00;4.63;;;;;;;19.94;100.00;98762.56;5090926;28;20946;-74
2021/07/04 11:18:46;;;;;;;5.57;4.47;;;;;;;20.18;100.00;98755.41;5091526;28;20525;-73
2021/07/04 11:21:14;;;;;;;3.83;3.53;;;;;;;20.36;100.00;98758.81;5094120;28;21263;-72
2021/07/04 11:23:41;;;;;;;3.90;3.43;;;;;;;20.55;100.00;98760.31;5095253;28;20457;-72
2021/07/04 11:26:14;;;;;;;4.37;2.90;;;;;;;20.67;100.00;98758.13;5095260;28;20478;-73
2021/07/04 11:28:42;;;;;;;3.57;3.27;;;;;;;20.89;100.00;98756.50;5094645;28;20444;-73
2021/07/04 11:31:31;;;;;;;4.83;3.97;;;;;;;21.24;100.00;98751.59;5094643;28;20434;-73
2021/07/04 11:34:02;;;;;;;3.63;3.07;;;;;;;21.93;100.00;98742.63;5094965;28;20441;-73